Stottfjord — LMCE — position and weather

sailwx.info

Track history (hours):
 
Tides and Currents Weather Stations Pressure Air Temp Water Temp Dewpoint Dewpoint Depression Visibility Wind Speed Wind Dir Waves Ship Positions

Stottfjord

Last reported at 2017-Mar-29 01:06 UTC. Time now 2017-Apr-25 16:27 UTC.
Position N 69°17' E 017°59'.
Warning: this ship's position is 27 days out of date.

Length 28 m; draft 5.3 m.

Type: Fishing. MMSI: 257580600.

Date/timePositionNaut miles runAvg speedWind from/ knotsBaromVisibWave heightAir tempDewpointWater temp
2017-Mar-29 01:06N 69°17' E 017°59'5 8.7
2017-Mar-29 00:33N 69°13' E 017°59'8 7.8
2017-Mar-28 23:33N 69°08' E 017°42'119 8.5
2017-Mar-28 09:28N 67°32' E 014°30'8 9.1
2017-Mar-28 08:33N 67°24' E 014°26'7 6.4
2017-Mar-28 07:32N 67°17' E 014°23'0 0.0
2017-Mar-28 06:31N 67°17' E 014°23'0 0.0
2017-Mar-28 05:31N 67°17' E 014°23'0 0.0
2017-Mar-28 04:31N 67°17' E 014°23'0 0.0
2017-Mar-28 03:31N 67°17' E 014°23'0 0.0
2017-Mar-28 02:31N 67°17' E 014°23'0 0.0
2017-Mar-28 01:31N 67°17' E 014°23'0 0.0
2017-Mar-28 00:31N 67°17' E 014°23'0 0.0
2017-Mar-27 23:31N 67°17' E 014°23'0 0.0
2017-Mar-27 22:31N 67°17' E 014°23'0 0.0
2017-Mar-27 21:31N 67°17' E 014°23'0 0.0
2017-Mar-27 20:31N 67°17' E 014°23'0 0.0
2017-Mar-27 19:31N 67°17' E 014°23'0 0.0
2017-Mar-27 18:31N 67°17' E 014°23'0 0.0
2017-Mar-27 17:31N 67°17' E 014°23'0 0.0
2017-Mar-27 16:31N 67°17' E 014°23'0 0.0
2017-Mar-27 15:31N 67°17' E 014°23'0 0.0
2017-Mar-27 14:31N 67°17' E 014°23'0 0.0
2017-Mar-27 13:31N 67°17' E 014°23'0 0.0
2017-Mar-27 12:31N 67°17' E 014°23'0 0.0
2017-Mar-27 11:31N 67°17' E 014°23'0 0.0
2017-Mar-27 10:31N 67°17' E 014°23'0 0.0
2017-Mar-27 09:31N 67°17' E 014°23'0 0.0
2017-Mar-27 08:31N 67°17' E 014°23'0 0.0
2017-Mar-27 07:31N 67°17' E 014°23'0 0.0
2017-Mar-27 06:31N 67°17' E 014°23'0 0.0
2017-Mar-27 05:31N 67°17' E 014°23'0 0.0
2017-Mar-27 04:31N 67°17' E 014°23'0 0.0
2017-Mar-27 03:31N 67°17' E 014°23'0 0.0
2017-Mar-27 02:31N 67°17' E 014°23'0 0.0
2017-Mar-27 01:31N 67°17' E 014°23'0 0.0
2017-Mar-27 00:31N 67°17' E 014°23'0 0.0
2017-Mar-26 23:31N 67°17' E 014°23'0 0.0
2017-Mar-26 22:31N 67°17' E 014°23'0 0.0
2017-Mar-26 21:31N 67°17' E 014°23'0 0.0
2017-Mar-26 20:31N 67°17' E 014°23'0 0.0
2017-Mar-26 19:31N 67°17' E 014°23'0 0.0
2017-Mar-26 18:31N 67°17' E 014°23'0 0.0
2017-Mar-26 17:31N 67°17' E 014°23'0 0.0
2017-Mar-26 16:31N 67°17' E 014°23'0 0.0
2017-Mar-26 15:31N 67°17' E 014°23'0 0.0
2017-Mar-26 14:31N 67°17' E 014°23'0 0.0
2017-Mar-26 13:31N 67°17' E 014°23'0 0.0
2017-Mar-26 12:31N 67°17' E 014°23'0 0.0
2017-Mar-26 11:31N 67°17' E 014°23'0 0.0
2017-Mar-26 10:31N 67°17' E 014°23'0 0.0
2017-Mar-26 09:31N 67°17' E 014°23'0 0.0
2017-Mar-26 08:31N 67°17' E 014°23'0 0.0
2017-Mar-26 07:31N 67°17' E 014°23'0 0.0
2017-Mar-26 06:31N 67°17' E 014°23'0 0.0
2017-Mar-26 05:31N 67°17' E 014°23'0 0.0
2017-Mar-26 04:31N 67°17' E 014°23'0 0.0
2017-Mar-26 03:31N 67°17' E 014°23'0 0.0
2017-Mar-26 02:31N 67°17' E 014°23'0 0.0
2017-Mar-26 01:31N 67°17' E 014°23'0 0.0
2017-Mar-26 00:31N 67°17' E 014°23'0 0.0
2017-Mar-25 23:31N 67°17' E 014°23'0 0.0
2017-Mar-25 22:31N 67°17' E 014°23'0 0.0
2017-Mar-25 21:31N 67°17' E 014°23'0 0.0
2017-Mar-25 20:31N 67°17' E 014°23'0 0.0
2017-Mar-25 19:31N 67°17' E 014°23'0 0.0
2017-Mar-25 18:31N 67°17' E 014°23'0 0.0
2017-Mar-25 17:31N 67°17' E 014°23'0 0.0
2017-Mar-25 16:31N 67°17' E 014°23'0 0.0
2017-Mar-25 15:31N 67°17' E 014°23'0 0.0
2017-Mar-25 14:31N 67°17' E 014°23'0 0.0
2017-Mar-25 13:31N 67°17' E 014°23'0 0.0
2017-Mar-25 12:31N 67°17' E 014°23'0 0.0
2017-Mar-25 11:31N 67°17' E 014°23'0 0.0
2017-Mar-25 10:31N 67°17' E 014°23'0 0.0
2017-Mar-25 09:31N 67°17' E 014°23'0 0.0
2017-Mar-25 08:31N 67°17' E 014°23'0 0.0
2017-Mar-25 07:31N 67°17' E 014°23'0 0.0
2017-Mar-25 06:31N 67°17' E 014°23'0 0.0
2017-Mar-25 05:31N 67°17' E 014°23'0 0.0
2017-Mar-25 04:31N 67°17' E 014°23'0 0.0
2017-Mar-25 03:31N 67°17' E 014°23'0 0.0
2017-Mar-25 02:31N 67°17' E 014°23'0 0.0
2017-Mar-25 01:31N 67°17' E 014°23'0 0.0
2017-Mar-25 00:31N 67°17' E 014°23'0 0.0
2017-Mar-24 23:31N 67°17' E 014°23'0 0.0
2017-Mar-24 22:31N 67°17' E 014°23'0 0.0
2017-Mar-24 21:31N 67°17' E 014°23'0 0.0
2017-Mar-24 20:31N 67°17' E 014°23'0 0.0
2017-Mar-24 19:31N 67°17' E 014°23'0 0.0
2017-Mar-24 18:31N 67°17' E 014°23'0 0.0
2017-Mar-24 17:31N 67°17' E 014°23'0 0.0
2017-Mar-24 16:31N 67°17' E 014°23'0 0.0
2017-Mar-24 15:31N 67°17' E 014°23'0 0.0
2017-Mar-24 14:31N 67°17' E 014°23'0 0.0
2017-Mar-24 13:31N 67°17' E 014°23'0 0.0
2017-Mar-24 12:31N 67°17' E 014°23'0 0.0
2017-Mar-24 11:31N 67°17' E 014°23'0 0.0
2017-Mar-24 10:31N 67°17' E 014°23'0 0.0
2017-Mar-24 09:31N 67°17' E 014°23'0 0.0
2017-Mar-24 08:31N 67°17' E 014°23'0 0.0
2017-Mar-24 07:31N 67°17' E 014°23'0 0.0
2017-Mar-24 06:31N 67°17' E 014°23'0 0.0
2017-Mar-24 05:31N 67°17' E 014°23'0 0.0
2017-Mar-24 04:31N 67°17' E 014°23'0 0.0
2017-Mar-24 03:31N 67°17' E 014°23'0 0.0
2017-Mar-24 02:31N 67°17' E 014°23'0 0.0
2017-Mar-24 01:31N 67°17' E 014°23'0 0.0
2017-Mar-24 00:31N 67°17' E 014°23'0 0.0
2017-Mar-23 23:31N 67°17' E 014°23'0 0.0
2017-Mar-23 22:31N 67°17' E 014°23'0 0.0
2017-Mar-23 21:31N 67°17' E 014°23'0 0.0
2017-Mar-23 20:31N 67°17' E 014°23'0 0.0
2017-Mar-23 19:31N 67°17' E 014°23'0 0.0
2017-Mar-23 18:31N 67°17' E 014°23'0 0.0
2017-Mar-23 17:31N 67°17' E 014°23'0 0.0
2017-Mar-23 16:31N 67°17' E 014°23'0 0.0
2017-Mar-23 15:31N 67°17' E 014°23'0 0.0
2017-Mar-23 14:31N 67°17' E 014°23'0 0.0
2017-Mar-23 13:31N 67°17' E 014°23'0 0.0
2017-Mar-23 12:31N 67°17' E 014°23'0 0.0
2017-Mar-23 11:31N 67°17' E 014°23'0 0.0
2017-Mar-23 10:31N 67°17' E 014°23'0 0.0
2017-Mar-23 09:31N 67°17' E 014°23'0 0.0
2017-Mar-23 08:31N 67°17' E 014°23'0 0.0
2017-Mar-23 07:31N 67°17' E 014°23'0 0.0
2017-Mar-23 06:31N 67°17' E 014°23'0 0.0
2017-Mar-23 05:31N 67°17' E 014°23'0 0.0
2017-Mar-23 04:31N 67°17' E 014°23'0 0.0
2017-Mar-23 03:31N 67°17' E 014°23'0 0.0
2017-Mar-23 02:31N 67°17' E 014°23'0 0.0
2017-Mar-23 01:31N 67°17' E 014°23'0 0.0
2017-Mar-23 00:31N 67°17' E 014°23'0 0.0
2017-Mar-22 23:31N 67°17' E 014°23'0 0.0
2017-Mar-22 22:31N 67°17' E 014°23'0 0.0
2017-Mar-22 21:31N 67°17' E 014°23'0 0.0
2017-Mar-22 20:31N 67°17' E 014°23'0 0.0
2017-Mar-22 19:31N 67°17' E 014°23'0 0.0
2017-Mar-22 18:31N 67°17' E 014°23'0 0.0
2017-Mar-22 17:31N 67°17' E 014°23'0 0.0
2017-Mar-22 16:31N 67°17' E 014°23'0 0.0
2017-Mar-22 15:31N 67°17' E 014°23'0 0.0
2017-Mar-22 14:31N 67°17' E 014°23'0 0.0
2017-Mar-22 13:31N 67°17' E 014°23'0 0.0
2017-Mar-22 12:31N 67°17' E 014°23'0 0.0
2017-Mar-22 11:31N 67°17' E 014°23'0 0.0
2017-Mar-22 10:31N 67°17' E 014°23'0 0.0
2017-Mar-22 09:31N 67°17' E 014°23'0 0.0
2017-Mar-22 08:31N 67°17' E 014°23'0 0.0
2017-Mar-22 07:31N 67°17' E 014°23'0 0.0
2017-Mar-22 06:31N 67°17' E 014°23'0 0.0
2017-Mar-22 05:31N 67°17' E 014°23'0 0.0
2017-Mar-22 04:31N 67°17' E 014°23'0 0.0
2017-Mar-22 03:31N 67°17' E 014°23'0 0.0
2017-Mar-22 02:31N 67°17' E 014°23'0 0.0
2017-Mar-22 01:31N 67°17' E 014°23'0 0.0
2017-Mar-22 00:31N 67°17' E 014°23'0 0.0
2017-Mar-21 23:31N 67°17' E 014°23'0 0.0
2017-Mar-21 22:31N 67°17' E 014°23'6 6.3
2017-Mar-21 21:34N 67°13' E 014°12'10 9.9
2017-Mar-21 20:33N 67°05' E 013°56'10 9.8
2017-Mar-21 19:32N 66°59' E 013°36'5 5.2
2017-Mar-21 18:32N 66°56' E 013°26'0 0.0
2017-Mar-21 17:09N 66°56' E 013°26'1 0.7
2017-Mar-21 15:12N 66°57' E 013°29'0 0.5
2017-Mar-21 14:33N 66°57' E 013°29'9 9.2
2017-Mar-21 13:33N 67°02' E 013°48'8 8.5
2017-Mar-21 12:34N 67°09' E 014°02'9 9.1
2017-Mar-21 11:34N 67°16' E 014°17'3 2.8
2017-Mar-21 10:34N 67°17' E 014°23'0 0.3
2017-Mar-21 09:34N 67°18' E 014°22'132 4.8
2017-Mar-20 06:17N 69°24' E 016°02'  
Track history (hours):
 
Tides and Currents Weather Stations Pressure Air Temp Water Temp Dewpoint Dewpoint Depression Visibility Wind Speed Wind Dir Waves Ship Positions

Stottfjord

Last reported at 2017-Mar-29 01:06 UTC. Time now 2017-Apr-25 16:27 UTC.
Position N 69°17' E 017°59'.
Warning: this ship's position is 27 days out of date.

Length 28 m; draft 5.3 m.

Type: Fishing. MMSI: 257580600.

Date/timePositionNaut miles runAvg speedWind from/ knotsBaromVisibWave heightAir tempDewpointWater temp
2017-Mar-29 01:06N 69°17' E 017°59'5 8.7
2017-Mar-29 00:33N 69°13' E 017°59'8 7.8
2017-Mar-28 23:33N 69°08' E 017°42'119 8.5
2017-Mar-28 09:28N 67°32' E 014°30'8 9.1
2017-Mar-28 08:33N 67°24' E 014°26'7 6.4
2017-Mar-28 07:32N 67°17' E 014°23'0 0.0
2017-Mar-28 06:31N 67°17' E 014°23'0 0.0
2017-Mar-28 05:31N 67°17' E 014°23'0 0.0
2017-Mar-28 04:31N 67°17' E 014°23'0 0.0
2017-Mar-28 03:31N 67°17' E 014°23'0 0.0
2017-Mar-28 02:31N 67°17' E 014°23'0 0.0
2017-Mar-28 01:31N 67°17' E 014°23'0 0.0
2017-Mar-28 00:31N 67°17' E 014°23'0 0.0
2017-Mar-27 23:31N 67°17' E 014°23'0 0.0
2017-Mar-27 22:31N 67°17' E 014°23'0 0.0
2017-Mar-27 21:31N 67°17' E 014°23'0 0.0
2017-Mar-27 20:31N 67°17' E 014°23'0 0.0
2017-Mar-27 19:31N 67°17' E 014°23'0 0.0
2017-Mar-27 18:31N 67°17' E 014°23'0 0.0
2017-Mar-27 17:31N 67°17' E 014°23'0 0.0
2017-Mar-27 16:31N 67°17' E 014°23'0 0.0
2017-Mar-27 15:31N 67°17' E 014°23'0 0.0
2017-Mar-27 14:31N 67°17' E 014°23'0 0.0
2017-Mar-27 13:31N 67°17' E 014°23'0 0.0
2017-Mar-27 12:31N 67°17' E 014°23'0 0.0
2017-Mar-27 11:31N 67°17' E 014°23'0 0.0
2017-Mar-27 10:31N 67°17' E 014°23'0 0.0
2017-Mar-27 09:31N 67°17' E 014°23'0 0.0
2017-Mar-27 08:31N 67°17' E 014°23'0 0.0
2017-Mar-27 07:31N 67°17' E 014°23'0 0.0
2017-Mar-27 06:31N 67°17' E 014°23'0 0.0
2017-Mar-27 05:31N 67°17' E 014°23'0 0.0
2017-Mar-27 04:31N 67°17' E 014°23'0 0.0
2017-Mar-27 03:31N 67°17' E 014°23'0 0.0
2017-Mar-27 02:31N 67°17' E 014°23'0 0.0
2017-Mar-27 01:31N 67°17' E 014°23'0 0.0
2017-Mar-27 00:31N 67°17' E 014°23'0 0.0
2017-Mar-26 23:31N 67°17' E 014°23'0 0.0
2017-Mar-26 22:31N 67°17' E 014°23'0 0.0
2017-Mar-26 21:31N 67°17' E 014°23'0 0.0
2017-Mar-26 20:31N 67°17' E 014°23'0 0.0
2017-Mar-26 19:31N 67°17' E 014°23'0 0.0
2017-Mar-26 18:31N 67°17' E 014°23'0 0.0
2017-Mar-26 17:31N 67°17' E 014°23'0 0.0
2017-Mar-26 16:31N 67°17' E 014°23'0 0.0
2017-Mar-26 15:31N 67°17' E 014°23'0 0.0
2017-Mar-26 14:31N 67°17' E 014°23'0 0.0
2017-Mar-26 13:31N 67°17' E 014°23'0 0.0
2017-Mar-26 12:31N 67°17' E 014°23'0 0.0
2017-Mar-26 11:31N 67°17' E 014°23'0 0.0
2017-Mar-26 10:31N 67°17' E 014°23'0 0.0
2017-Mar-26 09:31N 67°17' E 014°23'0 0.0
2017-Mar-26 08:31N 67°17' E 014°23'0 0.0
2017-Mar-26 07:31N 67°17' E 014°23'0 0.0
2017-Mar-26 06:31N 67°17' E 014°23'0 0.0
2017-Mar-26 05:31N 67°17' E 014°23'0 0.0
2017-Mar-26 04:31N 67°17' E 014°23'0 0.0
2017-Mar-26 03:31N 67°17' E 014°23'0 0.0
2017-Mar-26 02:31N 67°17' E 014°23'0 0.0
2017-Mar-26 01:31N 67°17' E 014°23'0 0.0
2017-Mar-26 00:31N 67°17' E 014°23'0 0.0
2017-Mar-25 23:31N 67°17' E 014°23'0 0.0
2017-Mar-25 22:31N 67°17' E 014°23'0 0.0
2017-Mar-25 21:31N 67°17' E 014°23'0 0.0
2017-Mar-25 20:31N 67°17' E 014°23'0 0.0
2017-Mar-25 19:31N 67°17' E 014°23'0 0.0
2017-Mar-25 18:31N 67°17' E 014°23'0 0.0
2017-Mar-25 17:31N 67°17' E 014°23'0 0.0
2017-Mar-25 16:31N 67°17' E 014°23'0 0.0
2017-Mar-25 15:31N 67°17' E 014°23'0 0.0
2017-Mar-25 14:31N 67°17' E 014°23'0 0.0
2017-Mar-25 13:31N 67°17' E 014°23'0 0.0
2017-Mar-25 12:31N 67°17' E 014°23'0 0.0
2017-Mar-25 11:31N 67°17' E 014°23'0 0.0
2017-Mar-25 10:31N 67°17' E 014°23'0 0.0
2017-Mar-25 09:31N 67°17' E 014°23'0 0.0
2017-Mar-25 08:31N 67°17' E 014°23'0 0.0
2017-Mar-25 07:31N 67°17' E 014°23'0 0.0
2017-Mar-25 06:31N 67°17' E 014°23'0 0.0
2017-Mar-25 05:31N 67°17' E 014°23'0 0.0
2017-Mar-25 04:31N 67°17' E 014°23'0 0.0
2017-Mar-25 03:31N 67°17' E 014°23'0 0.0
2017-Mar-25 02:31N 67°17' E 014°23'0 0.0
2017-Mar-25 01:31N 67°17' E 014°23'0 0.0
2017-Mar-25 00:31N 67°17' E 014°23'0 0.0
2017-Mar-24 23:31N 67°17' E 014°23'0 0.0
2017-Mar-24 22:31N 67°17' E 014°23'0 0.0
2017-Mar-24 21:31N 67°17' E 014°23'0 0.0
2017-Mar-24 20:31N 67°17' E 014°23'0 0.0
2017-Mar-24 19:31N 67°17' E 014°23'0 0.0
2017-Mar-24 18:31N 67°17' E 014°23'0 0.0
2017-Mar-24 17:31N 67°17' E 014°23'0 0.0
2017-Mar-24 16:31N 67°17' E 014°23'0 0.0
2017-Mar-24 15:31N 67°17' E 014°23'0 0.0
2017-Mar-24 14:31N 67°17' E 014°23'0 0.0
2017-Mar-24 13:31N 67°17' E 014°23'0 0.0
2017-Mar-24 12:31N 67°17' E 014°23'0 0.0
2017-Mar-24 11:31N 67°17' E 014°23'0 0.0
2017-Mar-24 10:31N 67°17' E 014°23'0 0.0
2017-Mar-24 09:31N 67°17' E 014°23'0 0.0
2017-Mar-24 08:31N 67°17' E 014°23'0 0.0
2017-Mar-24 07:31N 67°17' E 014°23'0 0.0
2017-Mar-24 06:31N 67°17' E 014°23'0 0.0
2017-Mar-24 05:31N 67°17' E 014°23'0 0.0
2017-Mar-24 04:31N 67°17' E 014°23'0 0.0
2017-Mar-24 03:31N 67°17' E 014°23'0 0.0
2017-Mar-24 02:31N 67°17' E 014°23'0 0.0
2017-Mar-24 01:31N 67°17' E 014°23'0 0.0
2017-Mar-24 00:31N 67°17' E 014°23'0 0.0
2017-Mar-23 23:31N 67°17' E 014°23'0 0.0
2017-Mar-23 22:31N 67°17' E 014°23'0 0.0
2017-Mar-23 21:31N 67°17' E 014°23'0 0.0
2017-Mar-23 20:31N 67°17' E 014°23'0 0.0
2017-Mar-23 19:31N 67°17' E 014°23'0 0.0
2017-Mar-23 18:31N 67°17' E 014°23'0 0.0
2017-Mar-23 17:31N 67°17' E 014°23'0 0.0
2017-Mar-23 16:31N 67°17' E 014°23'0 0.0
2017-Mar-23 15:31N 67°17' E 014°23'0 0.0
2017-Mar-23 14:31N 67°17' E 014°23'0 0.0
2017-Mar-23 13:31N 67°17' E 014°23'0 0.0
2017-Mar-23 12:31N 67°17' E 014°23'0 0.0
2017-Mar-23 11:31N 67°17' E 014°23'0 0.0
2017-Mar-23 10:31N 67°17' E 014°23'0 0.0
2017-Mar-23 09:31N 67°17' E 014°23'0 0.0
2017-Mar-23 08:31N 67°17' E 014°23'0 0.0
2017-Mar-23 07:31N 67°17' E 014°23'0 0.0
2017-Mar-23 06:31N 67°17' E 014°23'0 0.0
2017-Mar-23 05:31N 67°17' E 014°23'0 0.0
2017-Mar-23 04:31N 67°17' E 014°23'0 0.0
2017-Mar-23 03:31N 67°17' E 014°23'0 0.0
2017-Mar-23 02:31N 67°17' E 014°23'0 0.0
2017-Mar-23 01:31N 67°17' E 014°23'0 0.0
2017-Mar-23 00:31N 67°17' E 014°23'0 0.0
2017-Mar-22 23:31N 67°17' E 014°23'0 0.0
2017-Mar-22 22:31N 67°17' E 014°23'0 0.0
2017-Mar-22 21:31N 67°17' E 014°23'0 0.0
2017-Mar-22 20:31N 67°17' E 014°23'0 0.0
2017-Mar-22 19:31N 67°17' E 014°23'0 0.0
2017-Mar-22 18:31N 67°17' E 014°23'0 0.0
2017-Mar-22 17:31N 67°17' E 014°23'0 0.0
2017-Mar-22 16:31N 67°17' E 014°23'0 0.0
2017-Mar-22 15:31N 67°17' E 014°23'0 0.0
2017-Mar-22 14:31N 67°17' E 014°23'0 0.0
2017-Mar-22 13:31N 67°17' E 014°23'0 0.0
2017-Mar-22 12:31N 67°17' E 014°23'0 0.0
2017-Mar-22 11:31N 67°17' E 014°23'0 0.0
2017-Mar-22 10:31N 67°17' E 014°23'0 0.0
2017-Mar-22 09:31N 67°17' E 014°23'0 0.0
2017-Mar-22 08:31N 67°17' E 014°23'0 0.0
2017-Mar-22 07:31N 67°17' E 014°23'0 0.0
2017-Mar-22 06:31N 67°17' E 014°23'0 0.0
2017-Mar-22 05:31N 67°17' E 014°23'0 0.0
2017-Mar-22 04:31N 67°17' E 014°23'0 0.0
2017-Mar-22 03:31N 67°17' E 014°23'0 0.0
2017-Mar-22 02:31N 67°17' E 014°23'0 0.0
2017-Mar-22 01:31N 67°17' E 014°23'0 0.0
2017-Mar-22 00:31N 67°17' E 014°23'0 0.0
2017-Mar-21 23:31N 67°17' E 014°23'0 0.0
2017-Mar-21 22:31N 67°17' E 014°23'6 6.3
2017-Mar-21 21:34N 67°13' E 014°12'10 9.9
2017-Mar-21 20:33N 67°05' E 013°56'10 9.8
2017-Mar-21 19:32N 66°59' E 013°36'5 5.2
2017-Mar-21 18:32N 66°56' E 013°26'0 0.0
2017-Mar-21 17:09N 66°56' E 013°26'1 0.7
2017-Mar-21 15:12N 66°57' E 013°29'0 0.5
2017-Mar-21 14:33N 66°57' E 013°29'9 9.2
2017-Mar-21 13:33N 67°02' E 013°48'8 8.5
2017-Mar-21 12:34N 67°09' E 014°02'9 9.1
2017-Mar-21 11:34N 67°16' E 014°17'3 2.8
2017-Mar-21 10:34N 67°17' E 014°23'0 0.3
2017-Mar-21 09:34N 67°18' E 014°22'132 4.8
2017-Mar-20 06:17N 69°24' E 016°02'  

Dump ship's entire track history